Time;durP1;ratioP1;P1;durP2;ratioP2;P2;SDS_P1;SDS_P2;PMS_P1;PMS_P2;Temp;Humidity;BMP_temperature;BMP_pressure;BME280_temperature;BME280_humidity;BME280_pressure;Samples;Min_cycle;Max_cycle;Signal;HPM_P1;HPM_P2
2020/11/23 00:05:16;;;;;;;32.5;22.8;;;;;;;4.01;49.24219;99576.45;;;;
2020/11/23 00:15:15;;;;;;;32;22.9;;;;;;;3.95;49.26953;99574.75;;;;
2020/11/23 00:25:12;;;;;;;28.2;21.9;;;;;;;3.94;50.12988;99570.45;;;;
2020/11/23 00:35:10;;;;;;;32.2;24;;;;;;;3.87;51.86816;99583.13;;;;
2020/11/23 00:45:08;;;;;;;25.2;22.3;;;;;;;3.87;50.75977;99564.45;;;;
2020/11/23 00:55:06;;;;;;;33.5;20.1;;;;;;;3.93;50.90137;99552.83;;;;
2020/11/23 01:05:05;;;;;;;31.1;20.5;;;;;;;3.98;51.08594;99554.78;;;;
2020/11/23 01:15:03;;;;;;;42.4;26.5;;;;;;;4;52.29688;99558;;;;
2020/11/23 01:25:01;;;;;;;34.2;21.7;;;;;;;3.94;52.63672;99553.64;;;;
2020/11/23 01:34:59;;;;;;;32.7;22.7;;;;;;;3.87;53.61328;99555.64;;;;
2020/11/23 01:44:57;;;;;;;32.1;21.3;;;;;;;3.84;53.19531;99548.13;;;;
2020/11/23 01:54:55;;;;;;;31.3;22.6;;;;;;;3.74;53.9668;99543.44;;;;
2020/11/23 02:04:54;;;;;;;29;19.9;;;;;;;3.67;54.25781;99536.63;;;;
2020/11/23 02:14:51;;;;;;;24.1;20.1;;;;;;;3.67;54.41602;99540.11;;;;
2020/11/23 02:24:49;;;;;;;22.3;17.9;;;;;;;3.7;54.43066;99536.14;;;;
2020/11/23 02:34:47;;;;;;;32.2;20.3;;;;;;;3.63;56.54297;99524.82;;;;
2020/11/23 02:44:44;;;;;;;29.7;20;;;;;;;3.65;55.63086;99517.38;;;;
2020/11/23 02:54:42;;;;;;;31.6;22.7;;;;;;;3.6;55.73535;99501.31;;;;
2020/11/23 03:04:40;;;;;;;20.7;16.3;;;;;;;3.62;56.52051;99508.02;;;;
2020/11/23 03:14:38;;;;;;;30.6;16.6;;;;;;;3.62;56.52051;99502.69;;;;
2020/11/23 03:24:36;;;;;;;22.3;17.1;;;;;;;3.63;56.91113;99487.5;;;;
2020/11/23 03:34:34;;;;;;;22.4;17.2;;;;;;;3.62;56.66602;99488.55;;;;
2020/11/23 03:44:32;;;;;;;23.2;18.3;;;;;;;3.61;56.78613;99484.28;;;;
2020/11/23 03:54:30;;;;;;;29.7;17.8;;;;;;;3.66;55.51953;99487.02;;;;
2020/11/23 04:04:28;;;;;;;59.6;43.8;;;;;;;3.63;56.24121;99487.5;;;;
2020/11/23 04:14:26;;;;;;;22.1;16.7;;;;;;;3.63;56.18652;99490.98;;;;
2020/11/23 04:24:24;;;;;;;20.4;17;;;;;;;3.68;55.74707;99485.72;;;;
2020/11/23 04:34:22;;;;;;;29.6;19.6;;;;;;;3.67;56.20215;99493.98;;;;
2020/11/23 04:44:21;;;;;;;32;19.2;;;;;;;3.62;57.79395;99486.69;;;;
2020/11/23 04:54:17;;;;;;;26.2;19.5;;;;;;;3.61;57.85938;99482.4;;;;
2020/11/23 05:04:16;;;;;;;24.1;19.1;;;;;;;3.62;57.87207;99486.69;;;;
2020/11/23 05:14:15;;;;;;;22.5;16.3;;;;;;;3.55;57.39453;99484.18;;;;
2020/11/23 05:24:11;;;;;;;19.9;15.1;;;;;;;3.57;57.48535;99483.14;;;;
2020/11/23 05:34:09;;;;;;;22.1;17.7;;;;;;;3.55;57.85254;99465.52;;;;
2020/11/23 05:44:07;;;;;;;32.2;19.4;;;;;;;3.55;58.18555;99467.38;;;;
2020/11/23 05:54:04;;;;;;;16.4;13.6;;;;;;;3.43;58.86328;99462.13;;;;
2020/11/23 06:04:02;;;;;;;21.7;15.8;;;;;;;3.28;60.37988;99458.37;;;;
2020/11/23 06:14:00;;;;;;;22.4;14.2;;;;;;;3.24;59.58203;99438.58;;;;
2020/11/23 06:23:58;;;;;;;27.5;20.6;;;;;;;3.17;60.9209;99461.88;;;;
2020/11/23 06:43:54;;;;;;;19.3;16;;;;;;;3.18;61.5791;99455.52;;;;
2020/11/23 06:53:51;;;;;;;22.4;18.9;;;;;;;3.14;61.37305;99449.05;;;;
2020/11/23 07:03:49;;;;;;;35.2;23.4;;;;;;;3.08;61.7666;99464.13;;;;
2020/11/23 07:13:47;;;;;;;31.4;17.5;;;;;;;3.11;63.22852;99462.84;;;;
2020/11/23 07:23:45;;;;;;;34;21.4;;;;;;;3.37;64.49316;99462.25;;;;
2020/11/23 07:33:43;;;;;;;24.3;20.7;;;;;;;3.73;63.62109;99471.69;;;;
2020/11/23 07:43:41;;;;;;;23.4;19.8;;;;;;;4.19;60.98828;99474.03;;;;
2020/11/23 07:53:39;;;;;;;27.4;21.4;;;;;;;4.43;58.5293;99477.31;;;;
2020/11/23 08:03:37;;;;;;;25.8;21.7;;;;;;;4.65;58.3125;99472.8;;;;
2020/11/23 08:13:35;;;;;;;27.3;20.2;;;;;;;4.81;59.0166;99466.61;;;;
2020/11/23 08:23:33;;;;;;;37.7;25.4;;;;;;;4.84;58.89844;99468.78;;;;
2020/11/23 08:33:33;;;;;;;32.1;22.8;;;;;;;4.95;59.2832;99469.72;;;;
2020/11/23 08:43:29;;;;;;;25.8;20.9;;;;;;;5.1;57.51172;99475.25;;;;
2020/11/23 08:53:27;;;;;;;25.2;21.2;;;;;;;5.37;57.80566;99494.79;;;;
2020/11/23 09:03:25;;;;;;;29.3;19.5;;;;;;;5.53;58.25293;99485.05;;;;
2020/11/23 09:13:23;;;;;;;21.6;19.3;;;;;;;5.77;59.0918;99480.18;;;;
2020/11/23 09:23:21;;;;;;;30.8;22.8;;;;;;;5.87;61.2041;99465.05;;;;
2020/11/23 09:33:19;;;;;;;23.2;18.6;;;;;;;5.96;60.74609;99468.89;;;;
2020/11/23 09:43:17;;;;;;;29.6;20.7;;;;;;;5.62;61.66211;99477.39;;;;
2020/11/23 09:53:16;;;;;;;29.5;22.2;;;;;;;5.54;62.94922;99475.97;;;;
2020/11/23 10:03:17;;;;;;;32.8;21.1;;;;;;;5.63;63.13086;99471.77;;;;
2020/11/23 10:13:13;;;;;;;28;21.3;;;;;;;5.91;63.43945;99463.49;;;;
2020/11/23 10:23:10;;;;;;;24.4;20.5;;;;;;;5.69;64.62891;99460.08;;;;
2020/11/23 10:33:08;;;;;;;28.6;21.9;;;;;;;5.67;66.78516;99456.02;;;;
2020/11/23 10:43:09;;;;;;;26.4;19.4;;;;;;;5.63;67.14844;99450.38;;;;
2020/11/23 10:53:04;;;;;;;31.9;23;;;;;;;5.8;67.82422;99469.78;;;;
2020/11/23 11:03:02;;;;;;;23;19;;;;;;;5.54;65.95996;99468.77;;;;
2020/11/23 11:13:00;;;;;;;25.1;18.3;;;;;;;5.54;67.95117;99452.72;;;;
2020/11/23 11:22:59;;;;;;;21.2;16.4;;;;;;;5.31;68.49609;99468.27;;;;
2020/11/23 11:32:57;;;;;;;23.2;18.5;;;;;;;5.35;68.93848;99464;;;;
2020/11/23 11:42:55;;;;;;;23.4;17.9;;;;;;;5.39;69.32422;99467.79;;;;
2020/11/23 11:52:53;;;;;;;31.7;20.9;;;;;;;5.14;71.01563;99470.99;;;;
2020/11/23 12:02:51;;;;;;;33.4;23;;;;;;;4.94;73.13379;99479.59;;;;
2020/11/23 12:12:49;;;;;;;26.7;21.4;;;;;;;4.74;75.92871;99486.54;;;;
2020/11/23 12:22:47;;;;;;;27.6;22.2;;;;;;;4.64;76.36914;99503.23;;;;
2020/11/23 12:32:45;;;;;;;23.3;18.2;;;;;;;4.79;76.62793;99491.95;;;;
2020/11/23 12:42:44;;;;;;;25.2;19.1;;;;;;;4.9;76.69336;99478.47;;;;
2020/11/23 12:52:42;;;;;;;28;22.9;;;;;;;5.17;75.90527;99475.86;;;;
2020/11/23 13:02:40;;;;;;;24.3;20.7;;;;;;;5.15;74.22852;99458.45;;;;
2020/11/23 13:12:38;;;;;;;28.1;20.9;;;;;;;5.1;74.38672;99471.77;;;;
2020/11/23 13:22:36;;;;;;;29.6;23.3;;;;;;;5.35;72.80273;99485.38;;;;
2020/11/23 13:32:35;;;;;;;27.4;23.4;;;;;;;5.33;73.51172;99500.88;;;;
2020/11/23 13:42:32;;;;;;;24.6;19.8;;;;;;;5.36;73.27246;99503.86;;;;
2020/11/23 13:52:30;;;;;;;22.3;17.4;;;;;;;5.36;73.60547;99505.72;;;;
2020/11/23 14:02:28;;;;;;;25;18.7;;;;;;;5.32;74.29102;99515.29;;;;
2020/11/23 14:12:26;;;;;;;29;20.1;;;;;;;5.3;74.23242;99520.91;;;;
2020/11/23 14:22:25;;;;;;;32.8;23.3;;;;;;;5.24;74.46875;99516.53;;;;
2020/11/23 14:32:31;;;;;;;31.6;23.1;;;;;;;5.16;75.35742;99538.38;;;;
2020/11/23 14:42:32;;;;;;;33.6;23;;;;;;;5.2;74.52734;99558.2;;;;
2020/11/23 14:52:19;;;;;;;27.9;19.9;;;;;;;5.27;74.49512;99566.03;;;;
2020/11/23 15:02:17;;;;;;;33.2;21.9;;;;;;;5.21;74.17188;99575.83;;;;
2020/11/23 15:12:16;;;;;;;30.1;26.5;;;;;;;5.16;74.52148;99583.8;;;;
2020/11/23 15:22:16;;;;;;;31;23.5;;;;;;;5.12;74.5918;99604.05;;;;
2020/11/23 15:32:11;;;;;;;27.9;21.9;;;;;;;5.01;74.46191;99621.8;;;;
2020/11/23 15:42:09;;;;;;;29.2;24.9;;;;;;;4.99;74.30273;99629.26;;;;
2020/11/23 15:52:07;;;;;;;28;22.2;;;;;;;4.92;74.37793;99638.49;;;;
2020/11/23 16:02:05;;;;;;;29.7;22;;;;;;;4.82;74.36133;99662.38;;;;
2020/11/23 16:12:03;;;;;;;27.7;23.1;;;;;;;4.63;74.75195;99659.13;;;;
2020/11/23 16:22:01;;;;;;;29.2;23;;;;;;;4.34;75.58008;99676.27;;;;
2020/11/23 16:31:59;;;;;;;27.8;23.3;;;;;;;4.22;76.14844;99688.84;;;;
2020/11/23 16:41:57;;;;;;;33.3;23.5;;;;;;;4.07;77.05566;99694.69;;;;
2020/11/23 16:51:55;;;;;;;31.5;27.5;;;;;;;3.96;77.72461;99711.55;;;;
2020/11/23 17:01:52;;;;;;;35.1;29.6;;;;;;;4.12;77.7207;99721.48;;;;
2020/11/23 17:11:50;;;;;;;30;24.6;;;;;;;4.27;77.29199;99727.09;;;;
2020/11/23 17:21:48;;;;;;;29.3;22.4;;;;;;;4.38;76.7998;99733.42;;;;
2020/11/23 17:31:46;;;;;;;25.6;21.1;;;;;;;4.29;76.72852;99721.52;;;;
2020/11/23 17:41:44;;;;;;;26;20.5;;;;;;;4.25;76.36621;99725.71;;;;
2020/11/23 17:51:45;;;;;;;29.9;19.9;;;;;;;4.26;75.90039;99728.16;;;;
2020/11/23 18:01:40;;;;;;;21.4;17.3;;;;;;;4.29;75.62793;99743.69;;;;
2020/11/23 18:11:39;;;;;;;24.7;18.8;;;;;;;4.45;74.46484;99742.09;;;;
2020/11/23 18:21:36;;;;;;;24.8;17.7;;;;;;;4.5;74.30762;99740.34;;;;
2020/11/23 18:31:34;;;;;;;19.8;16.2;;;;;;;4.56;73.71484;99746.58;;;;
2020/11/23 18:41:32;;;;;;;29.4;19.1;;;;;;;4.62;73.48047;99756.29;;;;
2020/11/23 18:51:30;;;;;;;23;18.3;;;;;;;4.7;73.12695;99761.25;;;;
2020/11/23 19:01:28;;;;;;;30.3;20.4;;;;;;;4.79;72.80762;99764.35;;;;
2020/11/23 19:11:26;;;;;;;26.2;19;;;;;;;4.85;72.30566;99769.53;;;;
2020/11/23 19:21:24;;;;;;;25.7;17.7;;;;;;;4.87;72.375;99780.77;;;;
2020/11/23 19:31:23;;;;;;;26.8;19.8;;;;;;;4.88;72.12012;99802.95;;;;
2020/11/23 19:41:21;;;;;;;25.2;18.6;;;;;;;4.85;72.4502;99816.8;;;;
2020/11/23 19:51:19;;;;;;;33.1;22.5;;;;;;;4.81;72.84375;99827.15;;;;
2020/11/23 20:01:17;;;;;;;28.6;21.3;;;;;;;4.76;73.57227;99837.72;;;;
2020/11/23 20:11:16;;;;;;;32.3;24.6;;;;;;;4.63;74.1377;99845.2;;;;
2020/11/23 20:21:13;;;;;;;26.5;20.7;;;;;;;4.52;74.40918;99854.88;;;;
2020/11/23 20:31:11;;;;;;;30.4;24.9;;;;;;;4.51;74.36426;99869.3;;;;
2020/11/23 20:41:09;;;;;;;28.7;19.9;;;;;;;4.46;74.08789;99871.84;;;;
2020/11/23 20:51:07;;;;;;;35.5;25.1;;;;;;;4.44;73.92773;99868.61;;;;
2020/11/23 21:01:06;;;;;;;34.7;25.7;;;;;;;4.38;74.25195;99872.2;;;;
2020/11/23 21:11:03;;;;;;;33.9;24.5;;;;;;;4.32;74.32129;99879.3;;;;
2020/11/23 21:21:01;;;;;;;34.3;27.4;;;;;;;4.31;74.44043;99875;;;;
2020/11/23 21:30:59;;;;;;;34.7;25.6;;;;;;;4.32;74.29883;99884.64;;;;
2020/11/23 21:40:56;;;;;;;29;23.3;;;;;;;4.24;74.27246;99881.52;;;;
2020/11/23 21:50:54;;;;;;;27.1;19.7;;;;;;;4.23;74.03711;99887.91;;;;
2020/11/23 22:00:52;;;;;;;33.9;21.5;;;;;;;4.27;73.90039;99883.73;;;;
2020/11/23 22:10:50;;;;;;;26.9;17.8;;;;;;;4.34;73.60059;99890.55;;;;
2020/11/23 22:20:48;;;;;;;29.5;23.4;;;;;;;4.35;73.45703;99888.69;;;;
2020/11/23 22:30:46;;;;;;;26.1;21.6;;;;;;;4.27;73.7998;99905.09;;;;
2020/11/23 22:40:44;;;;;;;22.2;18.5;;;;;;;4.19;73.98633;99914.25;;;;
2020/11/23 22:50:43;;;;;;;25.4;16.7;;;;;;;4.15;74.13477;99928.28;;;;
2020/11/23 23:00:40;;;;;;;27;20.6;;;;;;;4.28;73.36719;99928.03;;;;
2020/11/23 23:10:38;;;;;;;25.4;17.8;;;;;;;4.32;73.3291;99926.52;;;;
2020/11/23 23:20:36;;;;;;;26.4;20.7;;;;;;;4.34;73.13184;99932.45;;;;
2020/11/23 23:30:35;;;;;;;31.9;22;;;;;;;4.3;73.69336;99941.97;;;;
2020/11/23 23:40:33;;;;;;;30.6;21.7;;;;;;;4.29;73.56934;99940.34;;;;
2020/11/23 23:50:31;;;;;;;30;24.7;;;;;;;4.22;74.05762;99936.98;;;;
